createdAt,value
2018-07-25T00:00:22.535Z,99.90
2018-07-25T00:02:53.633Z,99.90
2018-07-25T00:05:24.021Z,99.90
2018-07-25T00:07:54.643Z,99.90
2018-07-25T00:10:25.061Z,99.90
2018-07-25T00:12:55.458Z,99.90
2018-07-25T00:15:25.837Z,99.90
2018-07-25T00:18:00.354Z,99.90
2018-07-25T00:20:30.731Z,99.90
2018-07-25T00:23:01.115Z,99.90
2018-07-25T00:25:32.553Z,99.90
2018-07-25T00:28:02.879Z,99.90
2018-07-25T00:30:33.253Z,99.90
2018-07-25T00:33:03.694Z,99.90
2018-07-25T00:35:35.041Z,99.90
2018-07-25T00:38:05.415Z,99.90
2018-07-25T00:40:37.867Z,99.90
2018-07-25T00:43:08.251Z,99.90
2018-07-25T00:45:38.631Z,99.90
2018-07-25T00:48:09.036Z,99.90
2018-07-25T00:50:40.194Z,99.90
2018-07-25T00:53:12.626Z,99.90
2018-07-25T00:55:43.068Z,99.90
2018-07-25T00:58:13.460Z,99.90
2018-07-25T01:00:47.955Z,99.90
2018-07-25T01:03:18.339Z,99.90
2018-07-25T01:05:48.719Z,99.90
2018-07-25T01:08:19.133Z,99.90
2018-07-25T01:10:49.461Z,99.90
2018-07-25T01:13:19.780Z,99.90
2018-07-25T01:15:50.207Z,99.90
2018-07-25T01:18:20.608Z,99.90
2018-07-25T01:20:50.980Z,99.90
2018-07-25T01:23:25.497Z,99.90
2018-07-25T01:25:55.884Z,99.90
2018-07-25T01:28:27.045Z,99.90
2018-07-25T01:30:57.461Z,99.90
2018-07-25T01:33:27.841Z,99.90
2018-07-25T01:36:01.296Z,99.90
2018-07-25T01:38:31.697Z,99.90
2018-07-25T01:41:02.094Z,99.90
2018-07-25T01:43:51.878Z,99.90
2018-07-25T01:46:23.278Z,99.90
2018-07-25T01:48:53.856Z,99.90
2018-07-25T01:51:43.369Z,99.90
2018-07-25T01:54:13.686Z,99.90
2018-07-25T01:56:44.081Z,99.90
2018-07-25T01:59:33.862Z,99.90
2018-07-25T02:02:23.622Z,99.90
2018-07-25T02:04:54.044Z,99.90
2018-07-25T02:07:24.436Z,99.90
2018-07-25T02:09:55.606Z,99.90
2018-07-25T02:12:26.011Z,99.90
2018-07-25T02:14:57.857Z,99.90
2018-07-25T02:17:28.253Z,99.90
2018-07-25T02:20:03.766Z,99.90
2018-07-25T02:22:34.165Z,99.90
2018-07-25T02:25:04.562Z,99.90
2018-07-25T02:27:34.984Z,99.90
2018-07-25T02:30:07.422Z,99.90
2018-07-25T02:32:37.789Z,99.90
2018-07-25T02:35:08.199Z,99.90
2018-07-25T02:37:44.749Z,99.90
2018-07-25T02:40:15.921Z,99.90
2018-07-25T02:42:49.380Z,99.90
2018-07-25T02:45:20.537Z,99.90
2018-07-25T02:47:50.975Z,99.90
2018-07-25T02:50:21.370Z,99.90
2018-07-25T02:55:36.076Z,99.90
2018-07-25T02:58:06.397Z,99.90
2018-07-25T03:00:36.776Z,99.90
2018-07-25T03:03:07.181Z,99.90
2018-07-25T03:05:56.941Z,99.90
2018-07-25T03:08:27.281Z,99.90
2018-07-25T03:10:57.656Z,99.90
2018-07-25T03:13:28.801Z,99.90
2018-07-25T03:16:00.165Z,99.90
2018-07-25T03:18:30.533Z,99.90
2018-07-25T03:21:22.360Z,99.90
2018-07-25T03:24:14.867Z,99.90
2018-07-25T03:26:45.296Z,99.90
2018-07-25T03:29:15.685Z,99.90
2018-07-25T03:31:46.078Z,99.90
2018-07-25T03:34:16.498Z,99.90
2018-07-25T03:36:47.914Z,99.90
2018-07-25T03:39:19.074Z,99.90
2018-07-25T03:41:50.189Z,99.90
2018-07-25T03:44:20.574Z,99.90
2018-07-25T03:46:55.063Z,99.90
2018-07-25T03:49:25.456Z,99.90
2018-07-25T03:51:55.832Z,99.90
2018-07-25T03:54:26.237Z,99.90
2018-07-25T03:56:56.629Z,99.90
2018-07-25T03:59:27.026Z,99.90
2018-07-25T04:02:01.589Z,99.90
2018-07-25T04:04:31.893Z,99.90
2018-07-25T04:07:02.281Z,99.90
2018-07-25T04:09:32.682Z,99.90
2018-07-25T04:12:03.831Z,99.90
2018-07-25T04:14:34.982Z,99.90
2018-07-25T04:17:05.384Z,99.90
2018-07-25T04:19:35.762Z,99.90
2018-07-25T04:22:08.211Z,99.90
2018-07-25T04:24:39.401Z,99.90
2018-07-25T04:27:09.784Z,99.90
2018-07-25T04:29:40.165Z,99.90
2018-07-25T04:32:10.577Z,99.90
2018-07-25T04:35:01.079Z,99.90
2018-07-25T04:37:52.898Z,99.90
2018-07-25T04:40:42.313Z,99.90
2018-07-25T04:43:12.731Z,99.90
2018-07-25T04:45:43.113Z,99.90
2018-07-25T04:48:16.571Z,99.90
2018-07-25T04:50:47.763Z,99.90
2018-07-25T04:53:23.277Z,99.90
2018-07-25T04:55:53.657Z,99.90
2018-07-25T04:58:34.109Z,99.90
2018-07-25T05:01:24.544Z,99.90
2018-07-25T05:03:55.721Z,99.90
2018-07-25T05:06:26.133Z,99.90
2018-07-25T05:08:57.296Z,99.90
2018-07-25T05:11:28.657Z,99.90
2018-07-25T05:14:04.150Z,99.90
2018-07-25T05:16:34.556Z,99.90
2018-07-25T05:19:04.942Z,99.90
2018-07-25T05:21:35.324Z,99.90
2018-07-25T05:24:05.732Z,99.90
2018-07-25T05:26:36.129Z,99.90
2018-07-25T05:29:06.535Z,99.90
2018-07-25T05:31:37.715Z,99.90
2018-07-25T05:34:10.126Z,99.90
2018-07-25T05:36:40.443Z,99.90
2018-07-25T05:39:10.874Z,99.90
2018-07-25T05:41:41.254Z,99.90
2018-07-25T05:44:11.629Z,99.90
2018-07-25T05:46:42.037Z,99.90
2018-07-25T05:49:12.427Z,99.90
2018-07-25T05:51:42.814Z,99.90
2018-07-25T05:54:13.221Z,99.90
2018-07-25T05:56:43.632Z,99.90
2018-07-25T05:59:13.978Z,99.90
2018-07-25T06:01:44.388Z,99.90
2018-07-25T06:04:14.767Z,99.90
2018-07-25T06:06:45.902Z,99.90
2018-07-25T06:09:17.074Z,99.90
2018-07-25T06:11:47.458Z,99.90
2018-07-25T06:14:17.913Z,99.90
2018-07-25T06:16:48.258Z,99.90
2018-07-25T06:19:18.661Z,99.90
2018-07-25T06:21:49.808Z,99.90
2018-07-25T06:24:20.909Z,99.90
2018-07-25T06:26:51.364Z,99.90
2018-07-25T06:29:21.740Z,99.90
2018-07-25T06:31:54.202Z,99.90
2018-07-25T06:34:24.579Z,99.90
2018-07-25T06:36:54.964Z,99.90
2018-07-25T06:39:25.309Z,99.90
2018-07-25T06:41:56.720Z,99.90
2018-07-25T06:44:27.121Z,99.90
2018-07-25T06:46:58.299Z,99.90
2018-07-25T06:49:28.679Z,99.90
2018-07-25T06:51:59.350Z,99.90
2018-07-25T06:54:29.751Z,99.90
2018-07-25T06:57:00.905Z,99.90
2018-07-25T07:02:19.083Z,99.90
2018-07-25T07:04:49.493Z,99.90
2018-07-25T07:07:20.640Z,99.90
2018-07-25T07:09:51.815Z,99.90
2018-07-25T07:12:22.392Z,99.90
2018-07-25T07:14:52.766Z,99.90
2018-07-25T07:17:23.199Z,99.90
2018-07-25T07:19:53.567Z,99.90
2018-07-25T07:22:24.137Z,99.90
2018-07-25T07:24:54.536Z,99.90
2018-07-25T07:27:24.942Z,99.90
2018-07-25T07:29:55.320Z,99.90
2018-07-25T07:32:25.747Z,99.90
2018-07-25T07:34:56.145Z,99.90
2018-07-25T07:37:26.620Z,99.90
2018-07-25T07:39:56.951Z,99.90
2018-07-25T07:42:27.341Z,99.90
2018-07-25T07:44:58.495Z,99.90
2018-07-25T07:47:28.895Z,99.90
2018-07-25T07:49:59.287Z,99.90
2018-07-25T07:52:51.873Z,99.90
2018-07-25T07:55:22.260Z,99.90
2018-07-25T07:58:12.818Z,99.90
2018-07-25T08:00:44.040Z,99.90
2018-07-25T08:03:15.437Z,99.90
2018-07-25T08:05:45.848Z,99.90
2018-07-25T08:08:17.252Z,99.90
2018-07-25T08:10:47.719Z,99.90
2018-07-25T08:13:18.030Z,99.90
2018-07-25T08:15:49.174Z,99.90
2018-07-25T08:18:19.826Z,99.90
2018-07-25T08:20:50.326Z,99.90
2018-07-25T08:23:20.574Z,99.90
2018-07-25T08:25:51.045Z,99.90
2018-07-25T08:28:21.368Z,99.90
2018-07-25T08:30:55.857Z,99.90
2018-07-25T08:33:26.239Z,99.90
2018-07-25T08:35:56.640Z,99.90
2018-07-25T08:38:46.405Z,99.90
2018-07-25T08:41:17.096Z,99.90
2018-07-25T08:43:47.574Z,99.90
2018-07-25T08:46:20.958Z,99.90
2018-07-25T08:48:53.403Z,99.90
2018-07-25T08:51:23.789Z,99.90
2018-07-25T08:54:12.539Z,99.90
2018-07-25T08:57:03.311Z,99.90
2018-07-25T08:59:33.651Z,99.90
2018-07-25T09:02:04.043Z,99.90
2018-07-25T09:04:35.202Z,99.90
2018-07-25T09:07:08.420Z,99.90
2018-07-25T09:09:38.863Z,99.90
2018-07-25T09:12:09.967Z,99.90
2018-07-25T09:14:41.150Z,99.90
2018-07-25T09:17:11.540Z,99.90
2018-07-25T09:19:42.002Z,99.90
2018-07-25T09:22:12.372Z,99.90
2018-07-25T09:24:43.457Z,99.90
2018-07-25T09:27:13.858Z,99.90
2018-07-25T09:29:44.972Z,99.90
2018-07-25T09:32:15.425Z,99.90
2018-07-25T09:34:51.905Z,99.90
2018-07-25T09:37:22.298Z,99.90
2018-07-25T09:39:52.693Z,99.90
2018-07-25T09:42:23.089Z,99.90
2018-07-25T09:44:53.512Z,99.90
2018-07-25T09:47:23.890Z,99.90
2018-07-25T09:49:54.257Z,99.90
2018-07-25T09:52:25.417Z,99.90
2018-07-25T09:54:56.528Z,99.90
2018-07-25T09:57:27.969Z,99.90
2018-07-25T09:59:58.341Z,99.90
2018-07-25T10:02:28.735Z,99.90
2018-07-25T10:04:59.913Z,99.90
2018-07-25T10:07:30.358Z,99.90
2018-07-25T10:10:00.679Z,99.90
2018-07-25T10:12:36.221Z,99.90
2018-07-25T10:15:06.658Z,99.90
2018-07-25T10:17:37.678Z,99.90
2018-07-25T10:20:08.085Z,99.90
2018-07-25T10:22:39.230Z,99.90
2018-07-25T10:25:09.628Z,99.90
2018-07-25T10:27:40.047Z,99.90
2018-07-25T10:30:12.482Z,99.50
2018-07-25T10:32:42.866Z,99.80
2018-07-25T10:35:13.241Z,99.80
2018-07-25T10:37:43.643Z,99.90
2018-07-25T10:40:14.788Z,98.70
2018-07-25T10:42:45.217Z,98.70
2018-07-25T10:45:15.622Z,98.60
2018-07-25T10:47:46.026Z,98.50
2018-07-25T10:50:16.417Z,98.20
2018-07-25T10:52:46.733Z,98.70
2018-07-25T10:55:17.104Z,99.30
2018-07-25T10:57:47.518Z,98.70
2018-07-25T11:00:17.913Z,98.10
2018-07-25T11:02:49.332Z,97.90
2018-07-25T11:05:20.451Z,97.50
2018-07-25T11:07:50.837Z,97.60
2018-07-25T11:10:22.203Z,97.80
2018-07-25T11:12:52.633Z,97.80
2018-07-25T11:18:14.381Z,97.80
2018-07-25T11:20:46.816Z,97.10
2018-07-25T11:23:17.129Z,97.70
2018-07-25T11:25:48.313Z,97.60
2018-07-25T11:28:18.708Z,97.60
2018-07-25T11:30:49.854Z,97.90
2018-07-25T11:33:21.018Z,98.50
2018-07-25T11:35:51.401Z,98.50
2018-07-25T11:38:21.719Z,97.50
2018-07-25T11:40:52.071Z,96.70
2018-07-25T11:43:23.152Z,95.70
2018-07-25T11:45:55.584Z,95.70
2018-07-25T11:48:26.001Z,96.30
2018-07-25T11:50:56.400Z,96.30
2018-07-25T11:53:26.797Z,96.00
2018-07-25T11:55:57.198Z,95.40
2018-07-25T11:58:28.285Z,95.70
2018-07-25T12:00:58.735Z,95.70
2018-07-25T12:03:29.845Z,95.40
2018-07-25T12:06:00.240Z,95.40
2018-07-25T12:08:31.385Z,96.50
2018-07-25T12:11:02.569Z,96.60
2018-07-25T12:13:33.177Z,96.60
2018-07-25T12:16:03.805Z,96.10
2018-07-25T12:18:34.209Z,96.30
2018-07-25T12:21:04.622Z,95.40
2018-07-25T12:23:35.006Z,95.80
2018-07-25T12:26:05.417Z,96.60
2018-07-25T12:28:35.801Z,96.10
2018-07-25T12:31:06.184Z,95.30
2018-07-25T12:33:36.600Z,95.40
2018-07-25T12:36:06.931Z,95.10
2018-07-25T12:38:37.316Z,94.00
2018-07-25T12:41:07.717Z,94.80
2018-07-25T12:43:38.109Z,95.90
2018-07-25T12:46:08.519Z,96.50
2018-07-25T12:48:38.937Z,96.00
2018-07-25T12:51:10.083Z,94.90
2018-07-25T12:53:41.231Z,95.30
2018-07-25T12:56:12.398Z,96.20
2018-07-25T12:58:42.717Z,96.20
2018-07-25T13:01:13.097Z,96.20
2018-07-25T13:03:43.496Z,95.10
2018-07-25T13:06:15.912Z,95.00
2018-07-25T13:08:47.091Z,94.90
2018-07-25T13:11:18.253Z,94.20
2018-07-25T13:13:48.633Z,94.20
2018-07-25T13:16:20.795Z,94.80
2018-07-25T13:18:52.153Z,94.80
2018-07-25T13:21:23.305Z,93.80
2018-07-25T13:23:54.454Z,93.20
2018-07-25T13:26:24.881Z,93.20
2018-07-25T13:28:55.346Z,92.40
2018-07-25T13:31:25.687Z,93.30
2018-07-25T13:33:56.095Z,93.70
2018-07-25T13:36:32.622Z,94.20
2018-07-25T13:39:04.817Z,94.30
2018-07-25T13:41:35.208Z,94.00
2018-07-25T13:44:06.368Z,92.80
2018-07-25T13:46:36.780Z,92.70
2018-07-25T13:49:07.146Z,93.30
2018-07-25T13:51:37.526Z,93.30
2018-07-25T13:54:08.184Z,93.10
2018-07-25T13:56:38.557Z,92.50
2018-07-25T13:59:09.896Z,93.10
2018-07-25T14:01:40.302Z,92.00
2018-07-25T14:04:11.717Z,92.60
2018-07-25T14:06:42.375Z,93.60
2018-07-25T14:09:12.777Z,93.40
2018-07-25T14:11:43.206Z,93.40
2018-07-25T14:14:13.533Z,92.70
2018-07-25T14:16:43.953Z,91.90
2018-07-25T14:19:15.373Z,91.80
2018-07-25T14:21:51.907Z,92.70
2018-07-25T14:24:23.167Z,91.40
2018-07-25T14:26:53.473Z,91.40
2018-07-25T14:29:24.579Z,92.10
2018-07-25T14:32:01.083Z,92.10
2018-07-25T14:34:31.488Z,91.50
2018-07-25T14:37:01.865Z,91.40
2018-07-25T14:39:34.305Z,92.10
2018-07-25T14:42:04.638Z,92.30
2018-07-25T14:44:35.846Z,92.10
2018-07-25T14:47:25.501Z,92.10
2018-07-25T14:49:57.916Z,91.00
2018-07-25T14:52:28.370Z,91.10
2018-07-25T14:54:58.692Z,90.70
2018-07-25T14:57:29.871Z,90.30
2018-07-25T15:00:00.257Z,90.30
2018-07-25T15:02:30.671Z,90.40
2018-07-25T15:05:01.056Z,90.90
2018-07-25T15:07:31.442Z,91.40
2018-07-25T15:10:02.620Z,93.00
2018-07-25T15:12:33.055Z,93.10
2018-07-25T15:15:03.329Z,92.70
2018-07-25T15:17:33.752Z,93.10
2018-07-25T15:20:04.144Z,93.60
2018-07-25T15:22:34.513Z,93.00
2018-07-25T15:25:04.864Z,93.60
2018-07-25T15:27:35.249Z,92.70
2018-07-25T15:32:54.329Z,92.90
2018-07-25T15:35:24.712Z,92.90
2018-07-25T15:37:55.084Z,92.90
2018-07-25T15:40:25.495Z,93.40
2018-07-25T15:42:55.892Z,93.80
2018-07-25T15:45:26.268Z,93.90
2018-07-25T15:47:56.599Z,93.70
2018-07-25T15:50:26.911Z,93.70
2018-07-25T15:52:57.535Z,93.90
2018-07-25T15:55:28.643Z,94.00
2018-07-25T15:57:59.039Z,94.00
2018-07-25T16:00:29.419Z,94.10
2018-07-25T16:03:07.147Z,94.80
2018-07-25T16:05:37.521Z,95.00
2018-07-25T16:08:07.901Z,93.20
2018-07-25T16:10:38.312Z,93.80
2018-07-25T16:13:08.688Z,94.70
2018-07-25T16:15:39.080Z,93.50
2018-07-25T16:18:09.490Z,94.30
2018-07-25T16:20:41.927Z,93.40
2018-07-25T16:23:12.294Z,94.20
2018-07-25T16:25:42.725Z,94.50
2018-07-25T16:28:13.105Z,94.80
2018-07-25T16:30:43.491Z,95.00
2018-07-25T16:33:13.887Z,94.90
2018-07-25T16:35:45.308Z,95.00
2018-07-25T16:38:15.691Z,94.30
2018-07-25T16:40:46.099Z,94.40
2018-07-25T16:43:16.470Z,94.60
2018-07-25T16:45:47.600Z,94.20
2018-07-25T16:48:18.020Z,94.20
2018-07-25T16:50:48.397Z,93.20
2018-07-25T16:53:18.718Z,94.10
2018-07-25T16:55:49.132Z,94.10
2018-07-25T16:58:19.522Z,94.00
2018-07-25T17:00:49.912Z,94.20
2018-07-25T17:03:20.328Z,94.00
2018-07-25T17:05:50.714Z,93.90
2018-07-25T17:08:21.877Z,94.80
2018-07-25T17:10:52.322Z,94.80
2018-07-25T17:13:22.933Z,93.90
2018-07-25T17:15:54.257Z,94.40
2018-07-25T17:18:24.655Z,94.40
2018-07-25T17:20:56.053Z,94.70
2018-07-25T17:23:27.223Z,93.70
2018-07-25T17:25:57.656Z,94.00
2018-07-25T17:28:28.041Z,95.00
2018-07-25T17:30:59.173Z,94.10
2018-07-25T17:33:29.840Z,94.00
2018-07-25T17:36:00.206Z,94.30
2018-07-25T17:38:52.026Z,93.90
2018-07-25T17:41:24.489Z,92.50
2018-07-25T17:43:55.601Z,93.60
2018-07-25T17:46:26.775Z,92.40
2018-07-25T17:48:57.151Z,92.40
2018-07-25T17:51:27.546Z,93.00
2018-07-25T17:53:57.950Z,92.60
2018-07-25T17:56:28.336Z,93.20
2018-07-25T17:58:59.746Z,93.20
2018-07-25T18:01:35.275Z,93.00
2018-07-25T18:04:05.653Z,92.10
2018-07-25T18:06:36.039Z,92.70
2018-07-25T18:09:09.457Z,91.90
2018-07-25T18:11:42.086Z,91.70
2018-07-25T18:14:13.234Z,92.90
2018-07-25T18:16:43.644Z,92.80
2018-07-25T18:19:14.790Z,93.40
2018-07-25T18:21:45.949Z,93.00
2018-07-25T18:24:18.141Z,92.70
2018-07-25T18:26:48.466Z,92.70
2018-07-25T18:29:19.972Z,92.40
2018-07-25T18:31:51.050Z,91.90
2018-07-25T18:34:21.440Z,91.70
2018-07-25T18:36:51.831Z,92.20
2018-07-25T18:39:24.312Z,91.90
2018-07-25T18:41:56.741Z,91.90
2018-07-25T18:44:27.877Z,91.40
2018-07-25T18:46:59.102Z,91.70
2018-07-25T18:49:34.573Z,91.70
2018-07-25T18:52:05.766Z,94.00
2018-07-25T18:54:36.796Z,94.00
2018-07-25T18:57:26.308Z,95.50
2018-07-25T18:59:59.133Z,95.50
2018-07-25T19:05:20.731Z,98.00
2018-07-25T19:07:55.177Z,98.40
2018-07-25T19:10:25.588Z,98.60
2018-07-25T19:12:55.975Z,98.50
2018-07-25T19:15:26.360Z,98.60
2018-07-25T19:17:56.773Z,99.20
2018-07-25T19:20:27.855Z,99.00
2018-07-25T19:22:58.258Z,98.60
2018-07-25T19:25:28.695Z,98.20
2018-07-25T19:27:59.023Z,98.50
2018-07-25T19:30:29.419Z,98.60
2018-07-25T19:33:00.590Z,98.80
2018-07-25T19:35:31.030Z,98.70
2018-07-25T19:38:01.395Z,98.70
2018-07-25T19:40:31.733Z,98.80
2018-07-25T19:43:02.073Z,98.70
2018-07-25T19:45:33.255Z,98.20
2018-07-25T19:48:03.684Z,98.10
2018-07-25T19:50:34.140Z,98.40
2018-07-25T19:53:04.391Z,98.40
2018-07-25T19:55:34.786Z,98.40
2018-07-25T19:58:05.171Z,99.10
2018-07-25T20:00:35.518Z,99.40
2018-07-25T20:03:05.851Z,99.70
2018-07-25T20:05:36.233Z,99.70
2018-07-25T20:08:06.636Z,99.90
2018-07-25T20:10:38.053Z,99.90
2018-07-25T20:13:08.439Z,99.90
2018-07-25T20:15:48.342Z,99.90
2018-07-25T20:18:18.739Z,99.90
2018-07-25T20:20:49.141Z,99.90
2018-07-25T20:23:20.255Z,99.90
2018-07-25T20:25:50.641Z,99.90
2018-07-25T20:28:21.023Z,99.90
2018-07-25T20:30:51.373Z,99.90
2018-07-25T20:33:21.775Z,99.90
2018-07-25T20:35:52.178Z,99.90
2018-07-25T20:38:22.581Z,99.90
2018-07-25T20:40:52.979Z,99.90
2018-07-25T20:43:24.357Z,99.90
2018-07-25T20:45:59.878Z,99.90
2018-07-25T20:48:30.253Z,99.90
2018-07-25T20:51:01.337Z,99.90
2018-07-25T20:53:32.532Z,99.90
2018-07-25T20:56:09.074Z,99.90
2018-07-25T20:58:39.495Z,99.90
2018-07-25T21:01:09.867Z,99.90
2018-07-25T21:03:40.251Z,99.90
2018-07-25T21:06:10.652Z,99.90
2018-07-25T21:08:41.048Z,99.90
2018-07-25T21:11:11.619Z,99.90
2018-07-25T21:13:42.804Z,99.90
2018-07-25T21:16:17.295Z,99.90
2018-07-25T21:18:48.479Z,99.90
2018-07-25T21:21:38.247Z,99.90
2018-07-25T21:24:09.768Z,99.90
2018-07-25T21:26:44.370Z,99.90
2018-07-25T21:29:14.776Z,99.90
2018-07-25T21:31:45.222Z,99.90
2018-07-25T21:34:16.473Z,99.90
2018-07-25T21:36:47.510Z,99.90
2018-07-25T21:39:17.942Z,99.90
2018-07-25T21:41:48.338Z,99.90
2018-07-25T21:44:20.766Z,99.90
2018-07-25T21:46:51.193Z,99.90
2018-07-25T21:49:21.580Z,99.90
2018-07-25T21:51:51.906Z,99.90
2018-07-25T21:54:22.344Z,99.90
2018-07-25T21:56:52.731Z,99.90
2018-07-25T21:59:27.215Z,99.90
2018-07-25T22:01:58.390Z,99.90
2018-07-25T22:04:28.787Z,99.90
2018-07-25T22:07:00.136Z,99.90
2018-07-25T22:09:31.336Z,99.90
2018-07-25T22:12:01.740Z,99.90
2018-07-25T22:14:32.122Z,99.90
2018-07-25T22:17:02.526Z,99.90
2018-07-25T22:19:32.928Z,99.90
2018-07-25T22:22:03.314Z,99.90
2018-07-25T22:24:33.724Z,99.90
2018-07-25T22:27:04.123Z,99.90
2018-07-25T22:29:52.946Z,99.90
2018-07-25T22:32:23.391Z,99.90
2018-07-25T22:34:55.135Z,99.90
2018-07-25T22:37:25.541Z,99.90
2018-07-25T22:39:55.937Z,99.90
2018-07-25T22:42:26.305Z,99.90
2018-07-25T22:44:56.732Z,99.90
2018-07-25T22:47:27.814Z,99.90
2018-07-25T22:50:19.653Z,99.90
2018-07-25T22:52:50.036Z,99.90
2018-07-25T22:55:20.504Z,99.90
2018-07-25T22:57:51.613Z,99.90
2018-07-25T23:00:22.002Z,99.90
2018-07-25T23:02:52.402Z,99.90
2018-07-25T23:05:22.824Z,99.90
2018-07-25T23:07:55.276Z,99.90
2018-07-25T23:10:25.672Z,99.90
2018-07-25T23:12:56.858Z,99.90
2018-07-25T23:15:33.390Z,99.90
2018-07-25T23:18:04.577Z,99.90
2018-07-25T23:23:22.712Z,99.90
2018-07-25T23:25:53.099Z,99.90
2018-07-25T23:28:23.473Z,99.90
2018-07-25T23:30:54.076Z,99.90
2018-07-25T23:33:25.233Z,99.90
2018-07-25T23:35:55.618Z,99.90
2018-07-25T23:38:26.024Z,99.90
2018-07-25T23:40:56.406Z,99.90
2018-07-25T23:43:27.549Z,99.90
2018-07-25T23:45:57.955Z,99.90
2018-07-25T23:48:28.354Z,99.90
2018-07-25T23:51:18.123Z,99.90
2018-07-25T23:53:56.020Z,99.90
2018-07-25T23:56:30.525Z,99.90
2018-07-25T23:59:00.936Z,99.90
